Weather at IHS Hospital Heliport [CLOSED]

Public forecast

Using degrees Fahrenheit for public forecast. Weather courtesy of forecast.io.

Closest aviation weather report (METAR) to IHS Hospital Heliport

Closest report is Sierra Blanca Regional Airport, 21.4 nm (39.6 km) NNE. Retrieved 2021/12/01 12:35 UTC (24 minutes ago):

KSRR 011235Z AUTO 26008KT 10SM CLR 06/M08 A3030 RMK AO2

Closest aviation forecast (TAF) to IHS Hospital Heliport

Closest forecast is Holloman Air Force Base, 25.4 nm (47.0 km) SW. Retrieved 2021/12/01 09:03 UTC (4 hours ago):

TAF KHMN 010900Z 0109/0215 VRB06KT 9999 FEW220 QNH3018INS TX22/0122Z TN00/0113Z